sensor_id;sensor_type;location;lat;lon;timestamp;P1;P2;P0
65574;PMS5003;52216;54.942;73.394;2023-02-08T00:02:38;3.00;2.67;1.00
65574;PMS5003;52216;54.942;73.394;2023-02-08T00:05:41;4.75;3.00;1.75
65574;PMS5003;52216;54.942;73.394;2023-02-08T00:08:44;5.00;4.75;1.50
65574;PMS5003;52216;54.942;73.394;2023-02-08T00:11:48;8.00;5.00;3.00
65574;PMS5003;52216;54.942;73.394;2023-02-08T00:14:51;8.75;4.25;1.25
65574;PMS5003;52216;54.942;73.394;2023-02-08T00:17:54;7.00;4.25;2.00
65574;PMS5003;52216;54.942;73.394;2023-02-08T00:20:57;8.00;6.50;3.00
65574;PMS5003;52216;54.942;73.394;2023-02-08T00:24:00;5.00;4.00;1.00
65574;PMS5003;52216;54.942;73.394;2023-02-08T00:27:13;5.00;3.50;1.00
65574;PMS5003;52216;54.942;73.394;2023-02-08T00:30:17;3.00;3.00;1.00
65574;PMS5003;52216;54.942;73.394;2023-02-08T00:33:31;7.00;6.00;1.00
65574;PMS5003;52216;54.942;73.394;2023-02-08T00:36:34;6.00;4.50;1.00
65574;PMS5003;52216;54.942;73.394;2023-02-08T00:39:42;8.25;5.00;3.00
65574;PMS5003;52216;54.942;73.394;2023-02-08T00:42:49;7.50;5.50;4.00
65574;PMS5003;52216;54.942;73.394;2023-02-08T00:45:53;8.00;6.00;3.00
65574;PMS5003;52216;54.942;73.394;2023-02-08T00:49:01;8.00;5.75;3.25
65574;PMS5003;52216;54.942;73.394;2023-02-08T00:52:09;6.00;4.75;2.00
65574;PMS5003;52216;54.942;73.394;2023-02-08T00:55:20;5.00;4.00;2.00
65574;PMS5003;52216;54.942;73.394;2023-02-08T00:58:23;4.00;3.00;1.00
65574;PMS5003;52216;54.942;73.394;2023-02-08T01:01:30;4.00;4.00;1.00
65574;PMS5003;52216;54.942;73.394;2023-02-08T01:04:33;5.75;4.75;1.50
65574;PMS5003;52216;54.942;73.394;2023-02-08T01:07:46;5.00;5.00;1.00
65574;PMS5003;52216;54.942;73.394;2023-02-08T01:11:06;6.00;5.50;1.50
65574;PMS5003;52216;54.942;73.394;2023-02-08T01:14:10;5.00;3.00;1.00
65574;PMS5003;52216;54.942;73.394;2023-02-08T01:17:17;5.00;4.00;1.00
65574;PMS5003;52216;54.942;73.394;2023-02-08T01:20:20;6.00;5.25;1.00
65574;PMS5003;52216;54.942;73.394;2023-02-08T01:23:23;3.33;3.00;1.00
65574;PMS5003;52216;54.942;73.394;2023-02-08T01:26:26;5.00;5.00;1.75
65574;PMS5003;52216;54.942;73.394;2023-02-08T01:29:34;5.00;3.25;1.00
65574;PMS5003;52216;54.942;73.394;2023-02-08T01:32:42;5.00;3.50;1.00
65574;PMS5003;52216;54.942;73.394;2023-02-08T01:35:48;6.00;6.00;2.25
65574;PMS5003;52216;54.942;73.394;2023-02-08T01:38:52;7.00;6.00;3.00
65574;PMS5003;52216;54.942;73.394;2023-02-08T01:41:55;6.25;5.25;1.75
65574;PMS5003;52216;54.942;73.394;2023-02-08T01:45:16;6.00;5.00;1.00
65574;PMS5003;52216;54.942;73.394;2023-02-08T01:48:38;8.50;8.00;3.00
65574;PMS5003;52216;54.942;73.394;2023-02-08T01:52:15;12.00;11.25;5.00
65574;PMS5003;52216;54.942;73.394;2023-02-08T01:55:17;14.00;13.00;5.00
65574;PMS5003;52216;54.942;73.394;2023-02-08T01:58:24;16.33;14.67;6.00
65574;PMS5003;52216;54.942;73.394;2023-02-08T02:01:39;16.67;14.00;7.67
65574;PMS5003;52216;54.942;73.394;2023-02-08T02:04:49;14.00;13.00;5.00
65574;PMS5003;52216;54.942;73.394;2023-02-08T02:07:57;14.00;13.00;6.00
65574;PMS5003;52216;54.942;73.394;2023-02-08T02:11:01;15.00;13.00;5.50
65574;PMS5003;52216;54.942;73.394;2023-02-08T02:14:09;13.00;11.00;5.00
65574;PMS5003;52216;54.942;73.394;2023-02-08T02:17:33;10.00;10.00;3.00
65574;PMS5003;52216;54.942;73.394;2023-02-08T02:24:26;10.00;7.00;3.00
65574;PMS5003;52216;54.942;73.394;2023-02-08T02:44:38;12.00;10.00;4.00
65574;PMS5003;52216;54.942;73.394;2023-02-08T02:48:02;9.00;9.00;3.00
65574;PMS5003;52216;54.942;73.394;2023-02-08T02:54:23;11.00;8.00;3.00
65574;PMS5003;52216;54.942;73.394;2023-02-08T02:57:29;11.00;8.00;2.00
65574;PMS5003;52216;54.942;73.394;2023-02-08T03:00:37;13.00;10.75;4.00
65574;PMS5003;52216;54.942;73.394;2023-02-08T03:03:50;14.00;11.67;5.00
65574;PMS5003;52216;54.942;73.394;2023-02-08T03:13:46;10.00;9.75;3.50
65574;PMS5003;52216;54.942;73.394;2023-02-08T03:23:07;8.00;7.00;3.00
65574;PMS5003;52216;54.942;73.394;2023-02-08T03:26:24;8.50;7.00;3.00
65574;PMS5003;52216;54.942;73.394;2023-02-08T03:29:35;9.00;8.00;3.00
65574;PMS5003;52216;54.942;73.394;2023-02-08T03:33:05;9.75;7.75;3.00
65574;PMS5003;52216;54.942;73.394;2023-02-08T03:36:55;10.00;8.75;3.00
65574;PMS5003;52216;54.942;73.394;2023-02-08T03:39:37;9.00;8.00;2.00
65574;PMS5003;52216;54.942;73.394;2023-02-08T03:42:41;9.50;7.50;2.00
65574;PMS5003;52216;54.942;73.394;2023-02-08T03:45:51;8.00;6.00;2.00
65574;PMS5003;52216;54.942;73.394;2023-02-08T03:49:01;4.50;4.50;1.00
65574;PMS5003;52216;54.942;73.394;2023-02-08T03:52:06;6.00;6.00;3.00
65574;PMS5003;52216;54.942;73.394;2023-02-08T03:55:11;7.00;6.00;3.00
65574;PMS5003;52216;54.942;73.394;2023-02-08T03:58:25;7.50;6.00;3.00
65574;PMS5003;52216;54.942;73.394;2023-02-08T04:01:37;10.50;9.00;4.00
65574;PMS5003;52216;54.942;73.394;2023-02-08T04:04:43;11.00;9.00;3.00
65574;PMS5003;52216;54.942;73.394;2023-02-08T04:07:48;12.00;10.75;3.00
65574;PMS5003;52216;54.942;73.394;2023-02-08T04:10:50;11.00;10.00;3.00
65574;PMS5003;52216;54.942;73.394;2023-02-08T04:13:54;13.00;9.50;4.00
65574;PMS5003;52216;54.942;73.394;2023-02-08T04:16:56;11.33;11.00;3.33
65574;PMS5003;52216;54.942;73.394;2023-02-08T04:19:59;12.25;11.00;5.75
65574;PMS5003;52216;54.942;73.394;2023-02-08T04:23:02;14.67;13.00;7.00
65574;PMS5003;52216;54.942;73.394;2023-02-08T04:26:10;14.00;14.00;7.00
65574;PMS5003;52216;54.942;73.394;2023-02-08T04:29:22;13.00;12.00;6.00
65574;PMS5003;52216;54.942;73.394;2023-02-08T04:32:24;11.00;10.25;4.75
65574;PMS5003;52216;54.942;73.394;2023-02-08T04:35:37;13.75;11.50;4.50
65574;PMS5003;52216;54.942;73.394;2023-02-08T04:38:49;14.00;13.00;4.25
65574;PMS5003;52216;54.942;73.394;2023-02-08T04:41:51;13.50;12.25;4.25
65574;PMS5003;52216;54.942;73.394;2023-02-08T04:44:53;13.00;12.00;6.00
65574;PMS5003;52216;54.942;73.394;2023-02-08T04:48:00;13.00;11.00;5.00
65574;PMS5003;52216;54.942;73.394;2023-02-08T04:51:02;13.00;11.00;4.00
65574;PMS5003;52216;54.942;73.394;2023-02-08T04:54:06;11.00;8.00;3.00
65574;PMS5003;52216;54.942;73.394;2023-02-08T04:57:12;9.00;7.00;3.00
65574;PMS5003;52216;54.942;73.394;2023-02-08T05:00:26;9.50;7.00;3.00
65574;PMS5003;52216;54.942;73.394;2023-02-08T05:03:29;9.00;8.00;3.00
65574;PMS5003;52216;54.942;73.394;2023-02-08T05:06:37;10.00;8.00;3.00
65574;PMS5003;52216;54.942;73.394;2023-02-08T05:09:40;10.25;10.00;3.00
65574;PMS5003;52216;54.942;73.394;2023-02-08T05:12:43;10.00;8.00;3.00
65574;PMS5003;52216;54.942;73.394;2023-02-08T05:15:55;10.00;6.50;3.00
65574;PMS5003;52216;54.942;73.394;2023-02-08T05:18:58;10.00;5.00;3.00
65574;PMS5003;52216;54.942;73.394;2023-02-08T05:22:02;11.00;7.00;3.00
65574;PMS5003;52216;54.942;73.394;2023-02-08T05:25:13;12.13;8.38;4.50
65574;PMS5003;52216;54.942;73.394;2023-02-08T05:28:16;11.00;9.75;3.25
65574;PMS5003;52216;54.942;73.394;2023-02-08T05:31:21;11.00;10.00;3.00
65574;PMS5003;52216;54.942;73.394;2023-02-08T05:34:24;10.25;9.75;3.00
65574;PMS5003;52216;54.942;73.394;2023-02-08T05:37:27;11.00;10.00;3.00
65574;PMS5003;52216;54.942;73.394;2023-02-08T05:40:35;11.50;9.00;4.00
65574;PMS5003;52216;54.942;73.394;2023-02-08T05:43:41;11.75;10.25;4.25
65574;PMS5003;52216;54.942;73.394;2023-02-08T05:46:44;11.50;10.00;4.00
65574;PMS5003;52216;54.942;73.394;2023-02-08T05:49:47;10.00;8.50;3.00
65574;PMS5003;52216;54.942;73.394;2023-02-08T05:52:50;8.00;6.75;3.00
65574;PMS5003;52216;54.942;73.394;2023-02-08T05:55:58;7.00;5.50;3.00
65574;PMS5003;52216;54.942;73.394;2023-02-08T05:59:11;8.00;5.00;2.00
65574;PMS5003;52216;54.942;73.394;2023-02-08T06:02:21;7.00;5.50;2.25
65574;PMS5003;52216;54.942;73.394;2023-02-08T06:05:59;9.00;7.00;2.50
65574;PMS5003;52216;54.942;73.394;2023-02-08T06:09:04;12.00;10.00;4.00
65574;PMS5003;52216;54.942;73.394;2023-02-08T06:12:08;9.50;8.00;2.50
65574;PMS5003;52216;54.942;73.394;2023-02-08T06:15:11;13.00;10.00;4.75
65574;PMS5003;52216;54.942;73.394;2023-02-08T06:18:15;10.25;7.75;3.00
65574;PMS5003;52216;54.942;73.394;2023-02-08T06:21:18;10.00;8.00;3.00
65574;PMS5003;52216;54.942;73.394;2023-02-08T06:24:22;11.75;9.25;4.00
65574;PMS5003;52216;54.942;73.394;2023-02-08T06:27:23;13.00;10.00;5.00
65574;PMS5003;52216;54.942;73.394;2023-02-08T06:30:26;13.00;12.00;5.00
65574;PMS5003;52216;54.942;73.394;2023-02-08T06:33:35;12.00;12.00;5.00
65574;PMS5003;52216;54.942;73.394;2023-02-08T06:36:38;10.00;10.00;4.00
65574;PMS5003;52216;54.942;73.394;2023-02-08T06:39:41;12.00;10.00;4.00
65574;PMS5003;52216;54.942;73.394;2023-02-08T06:42:46;14.00;12.00;5.00
65574;PMS5003;52216;54.942;73.394;2023-02-08T06:45:49;13.00;12.00;4.00
65574;PMS5003;52216;54.942;73.394;2023-02-08T06:48:52;12.00;10.00;4.25
65574;PMS5003;52216;54.942;73.394;2023-02-08T06:51:57;12.00;10.00;4.50
65574;PMS5003;52216;54.942;73.394;2023-02-08T06:55:05;12.00;11.00;3.00
65574;PMS5003;52216;54.942;73.394;2023-02-08T06:58:09;14.00;12.00;4.75
65574;PMS5003;52216;54.942;73.394;2023-02-08T07:01:23;12.00;12.00;4.00
65574;PMS5003;52216;54.942;73.394;2023-02-08T07:04:26;11.00;11.00;3.50
65574;PMS5003;52216;54.942;73.394;2023-02-08T07:07:29;12.00;11.75;5.00
65574;PMS5003;52216;54.942;73.394;2023-02-08T07:10:38;11.00;11.00;4.00
65574;PMS5003;52216;54.942;73.394;2023-02-08T07:13:50;11.00;10.00;5.00
65574;PMS5003;52216;54.942;73.394;2023-02-08T07:16:52;10.00;8.00;3.00
65574;PMS5003;52216;54.942;73.394;2023-02-08T07:19:55;12.00;10.00;4.00
65574;PMS5003;52216;54.942;73.394;2023-02-08T07:22:59;9.50;7.00;2.50
65574;PMS5003;52216;54.942;73.394;2023-02-08T07:26:06;10.00;7.50;3.50
65574;PMS5003;52216;54.942;73.394;2023-02-08T07:29:13;7.25;5.00;1.50
65574;PMS5003;52216;54.942;73.394;2023-02-08T07:32:16;4.50;4.00;1.50
65574;PMS5003;52216;54.942;73.394;2023-02-08T07:35:19;5.00;5.00;2.00
65574;PMS5003;52216;54.942;73.394;2023-02-08T07:38:22;4.75;3.50;1.00
65574;PMS5003;52216;54.942;73.394;2023-02-08T07:41:25;10.00;8.00;3.00
65574;PMS5003;52216;54.942;73.394;2023-02-08T07:44:28;10.00;8.00;2.50
65574;PMS5003;52216;54.942;73.394;2023-02-08T07:47:31;9.00;6.75;2.00
65574;PMS5003;52216;54.942;73.394;2023-02-08T07:50:34;10.00;7.25;3.00
65574;PMS5003;52216;54.942;73.394;2023-02-08T07:53:38;8.50;5.50;3.00
65574;PMS5003;52216;54.942;73.394;2023-02-08T07:56:51;8.25;6.75;3.00
65574;PMS5003;52216;54.942;73.394;2023-02-08T08:00:05;6.50;5.00;3.00
65574;PMS5003;52216;54.942;73.394;2023-02-08T08:03:25;5.75;5.00;2.00
65574;PMS5003;52216;54.942;73.394;2023-02-08T08:06:40;4.50;4.00;1.00
65574;PMS5003;52216;54.942;73.394;2023-02-08T08:09:54;3.75;3.00;1.00
65574;PMS5003;52216;54.942;73.394;2023-02-08T08:12:57;7.25;7.00;1.25
65574;PMS5003;52216;54.942;73.394;2023-02-08T08:16:00;10.00;8.75;3.50
65574;PMS5003;52216;54.942;73.394;2023-02-08T08:19:06;11.00;9.00;3.00
65574;PMS5003;52216;54.942;73.394;2023-02-08T08:22:10;9.00;7.00;3.00
65574;PMS5003;52216;54.942;73.394;2023-02-08T08:25:13;8.00;7.00;3.00
65574;PMS5003;52216;54.942;73.394;2023-02-08T08:28:17;10.75;8.25;3.00
65574;PMS5003;52216;54.942;73.394;2023-02-08T08:31:20;10.75;9.00;3.00
65574;PMS5003;52216;54.942;73.394;2023-02-08T08:34:24;9.50;7.00;3.00
65574;PMS5003;52216;54.942;73.394;2023-02-08T08:37:31;8.25;5.25;2.00
65574;PMS5003;52216;54.942;73.394;2023-02-08T08:40:36;7.00;6.75;2.00
65574;PMS5003;52216;54.942;73.394;2023-02-08T08:43:39;6.00;5.00;2.00
65574;PMS5003;52216;54.942;73.394;2023-02-08T08:46:42;9.00;7.75;3.00
65574;PMS5003;52216;54.942;73.394;2023-02-08T08:49:46;8.25;6.75;3.00
65574;PMS5003;52216;54.942;73.394;2023-02-08T08:52:49;7.00;5.25;3.00
65574;PMS5003;52216;54.942;73.394;2023-02-08T08:55:52;5.75;5.00;2.00
65574;PMS5003;52216;54.942;73.394;2023-02-08T08:58:55;8.75;7.50;3.00
65574;PMS5003;52216;54.942;73.394;2023-02-08T09:01:58;7.00;6.75;3.00
65574;PMS5003;52216;54.942;73.394;2023-02-08T09:05:02;6.50;5.00;3.00
65574;PMS5003;52216;54.942;73.394;2023-02-08T09:08:06;9.00;7.00;2.00
65574;PMS5003;52216;54.942;73.394;2023-02-08T09:11:14;8.00;7.00;3.00
65574;PMS5003;52216;54.942;73.394;2023-02-08T09:14:18;9.50;8.00;3.00
65574;PMS5003;52216;54.942;73.394;2023-02-08T09:17:47;9.00;8.00;3.00
65574;PMS5003;52216;54.942;73.394;2023-02-08T09:20:50;12.00;10.00;3.00
65574;PMS5003;52216;54.942;73.394;2023-02-08T09:23:53;10.00;7.33;3.00
65574;PMS5003;52216;54.942;73.394;2023-02-08T09:26:55;11.00;8.00;3.00
65574;PMS5003;52216;54.942;73.394;2023-02-08T09:30:08;10.50;7.50;3.00
65574;PMS5003;52216;54.942;73.394;2023-02-08T09:33:11;10.00;7.25;3.00
65574;PMS5003;52216;54.942;73.394;2023-02-08T09:36:14;11.00;8.67;3.00
65574;PMS5003;52216;54.942;73.394;2023-02-08T09:39:19;10.00;8.00;3.00
65574;PMS5003;52216;54.942;73.394;2023-02-08T09:42:42;8.50;6.00;3.00
65574;PMS5003;52216;54.942;73.394;2023-02-08T09:49:00;9.50;5.50;3.00
65574;PMS5003;52216;54.942;73.394;2023-02-08T09:52:08;8.75;5.00;1.00
65574;PMS5003;52216;54.942;73.394;2023-02-08T09:55:19;8.75;5.25;3.00
65574;PMS5003;52216;54.942;73.394;2023-02-08T09:58:33;8.75;5.50;2.25
65574;PMS5003;52216;54.942;73.394;2023-02-08T10:01:37;9.00;5.00;2.00
65574;PMS5003;52216;54.942;73.394;2023-02-08T10:08:04;5.00;4.00;2.00
65574;PMS5003;52216;54.942;73.394;2023-02-08T10:24:07;6.75;5.00;2.00
65574;PMS5003;52216;54.942;73.394;2023-02-08T10:27:15;6.75;5.25;2.00
65574;PMS5003;52216;54.942;73.394;2023-02-08T10:36:53;5.25;5.00;2.00
65574;PMS5003;52216;54.942;73.394;2023-02-08T10:46:34;7.00;5.00;2.00
65574;PMS5003;52216;54.942;73.394;2023-02-08T10:50:27;5.00;5.00;1.00
65574;PMS5003;52216;54.942;73.394;2023-02-08T10:53:03;6.00;5.00;2.50
65574;PMS5003;52216;54.942;73.394;2023-02-08T10:56:33;10.00;7.00;3.00
65574;PMS5003;52216;54.942;73.394;2023-02-08T10:59:54;9.25;7.50;3.00
65574;PMS5003;52216;54.942;73.394;2023-02-08T11:02:59;10.00;7.25;3.00
65574;PMS5003;52216;54.942;73.394;2023-02-08T11:06:05;9.00;5.00;3.00
65574;PMS5003;52216;54.942;73.394;2023-02-08T11:09:34;10.00;7.00;3.00
65574;PMS5003;52216;54.942;73.394;2023-02-08T11:15:59;8.00;7.00;3.00
65574;PMS5003;52216;54.942;73.394;2023-02-08T11:19:03;7.25;6.00;3.00
65574;PMS5003;52216;54.942;73.394;2023-02-08T11:22:15;8.00;7.00;3.00
65574;PMS5003;52216;54.942;73.394;2023-02-08T11:25:35;8.75;7.25;3.00
65574;PMS5003;52216;54.942;73.394;2023-02-08T11:28:42;8.40;8.00;3.00
65574;PMS5003;52216;54.942;73.394;2023-02-08T11:38:22;8.67;7.00;3.00
65574;PMS5003;52216;54.942;73.394;2023-02-08T11:41:29;10.50;9.00;4.00
65574;PMS5003;52216;54.942;73.394;2023-02-08T11:44:33;12.00;8.00;4.00
65574;PMS5003;52216;54.942;73.394;2023-02-08T11:47:45;10.00;8.50;4.00
65574;PMS5003;52216;54.942;73.394;2023-02-08T11:50:59;9.33;6.00;3.00
65574;PMS5003;52216;54.942;73.394;2023-02-08T11:54:04;8.75;6.00;3.00
65574;PMS5003;52216;54.942;73.394;2023-02-08T11:57:11;6.00;5.00;2.50
65574;PMS5003;52216;54.942;73.394;2023-02-08T12:00:17;6.00;5.00;2.25
65574;PMS5003;52216;54.942;73.394;2023-02-08T12:03:27;5.00;5.00;2.00
65574;PMS5003;52216;54.942;73.394;2023-02-08T12:10:10;6.00;6.00;3.00
65574;PMS5003;52216;54.942;73.394;2023-02-08T12:16:43;7.00;5.75;2.50
65574;PMS5003;52216;54.942;73.394;2023-02-08T12:29:49;6.00;5.00;2.00
65574;PMS5003;52216;54.942;73.394;2023-02-08T12:33:08;5.00;4.00;2.00
65574;PMS5003;52216;54.942;73.394;2023-02-08T12:39:34;8.00;8.00;3.50
65574;PMS5003;52216;54.942;73.394;2023-02-08T12:49:47;9.50;8.50;3.00
65574;PMS5003;52216;54.942;73.394;2023-02-08T12:53:00;11.25;8.25;3.00
65574;PMS5003;52216;54.942;73.394;2023-02-08T12:56:05;8.00;5.00;3.00
65574;PMS5003;52216;54.942;73.394;2023-02-08T12:59:41;8.50;6.00;2.50
65574;PMS5003;52216;54.942;73.394;2023-02-08T13:02:55;10.00;6.00;3.00
65574;PMS5003;52216;54.942;73.394;2023-02-08T13:06:03;10.00;8.00;2.75
65574;PMS5003;52216;54.942;73.394;2023-02-08T13:12:42;10.00;10.00;3.00
65574;PMS5003;52216;54.942;73.394;2023-02-08T13:22:21;13.00;12.25;5.00
65574;PMS5003;52216;54.942;73.394;2023-02-08T13:25:33;13.00;12.00;5.00
65574;PMS5003;52216;54.942;73.394;2023-02-08T13:28:46;14.67;12.67;5.00
65574;PMS5003;52216;54.942;73.394;2023-02-08T13:31:52;13.00;11.00;5.00
65574;PMS5003;52216;54.942;73.394;2023-02-08T13:38:19;13.00;12.50;5.75
65574;PMS5003;52216;54.942;73.394;2023-02-08T13:41:25;11.33;10.67;4.00
65574;PMS5003;52216;54.942;73.394;2023-02-08T13:44:30;12.75;12.25;4.75
65574;PMS5003;52216;54.942;73.394;2023-02-08T13:47:36;15.00;11.75;6.00
65574;PMS5003;52216;54.942;73.394;2023-02-08T13:50:49;13.00;11.33;5.00
65574;PMS5003;52216;54.942;73.394;2023-02-08T13:57:04;17.00;13.00;5.00
65574;PMS5003;52216;54.942;73.394;2023-02-08T14:00:24;13.50;13.00;4.50
65574;PMS5003;52216;54.942;73.394;2023-02-08T14:06:36;12.50;12.00;5.00
65574;PMS5003;52216;54.942;73.394;2023-02-08T14:10:16;14.00;13.00;5.00
65574;PMS5003;52216;54.942;73.394;2023-02-08T14:13:20;15.00;13.00;6.00
65574;PMS5003;52216;54.942;73.394;2023-02-08T14:16:26;13.00;12.25;5.00
65574;PMS5003;52216;54.942;73.394;2023-02-08T14:19:41;13.67;11.78;5.22
65574;PMS5003;52216;54.942;73.394;2023-02-08T14:22:55;16.00;13.00;5.67
65574;PMS5003;52216;54.942;73.394;2023-02-08T14:26:01;15.25;15.00;5.50
65574;PMS5003;52216;54.942;73.394;2023-02-08T14:29:05;16.00;14.00;7.75
65574;PMS5003;52216;54.942;73.394;2023-02-08T14:32:22;13.00;12.50;5.00
65574;PMS5003;52216;54.942;73.394;2023-02-08T14:35:33;13.00;13.00;5.75
65574;PMS5003;52216;54.942;73.394;2023-02-08T14:38:51;13.00;12.33;6.00
65574;PMS5003;52216;54.942;73.394;2023-02-08T14:41:58;15.00;13.00;6.00
65574;PMS5003;52216;54.942;73.394;2023-02-08T14:45:03;15.00;13.00;6.00
65574;PMS5003;52216;54.942;73.394;2023-02-08T14:51:17;15.00;14.00;6.00
65574;PMS5003;52216;54.942;73.394;2023-02-08T14:54:25;15.00;14.00;6.00
65574;PMS5003;52216;54.942;73.394;2023-02-08T14:57:31;15.00;15.00;5.00
65574;PMS5003;52216;54.942;73.394;2023-02-08T15:00:35;14.50;13.00;4.00
65574;PMS5003;52216;54.942;73.394;2023-02-08T15:03:41;14.00;13.00;7.33
65574;PMS5003;52216;54.942;73.394;2023-02-08T15:09:55;13.00;11.00;4.25
65574;PMS5003;52216;54.942;73.394;2023-02-08T15:13:03;13.00;11.00;5.00
65574;PMS5003;52216;54.942;73.394;2023-02-08T15:16:18;13.50;11.25;5.50
65574;PMS5003;52216;54.942;73.394;2023-02-08T15:19:35;13.50;12.25;5.00
65574;PMS5003;52216;54.942;73.394;2023-02-08T15:22:42;15.00;13.00;6.00
65574;PMS5003;52216;54.942;73.394;2023-02-08T15:25:53;15.00;13.00;5.75
65574;PMS5003;52216;54.942;73.394;2023-02-08T15:28:55;15.00;14.00;5.00
65574;PMS5003;52216;54.942;73.394;2023-02-08T15:31:57;16.00;15.00;6.00
65574;PMS5003;52216;54.942;73.394;2023-02-08T15:35:01;14.50;13.25;5.75
65574;PMS5003;52216;54.942;73.394;2023-02-08T15:38:13;17.25;15.00;9.00
65574;PMS5003;52216;54.942;73.394;2023-02-08T15:41:24;19.25;16.00;10.00
65574;PMS5003;52216;54.942;73.394;2023-02-08T15:44:30;18.00;17.00;10.00
65574;PMS5003;52216;54.942;73.394;2023-02-08T15:47:39;18.50;16.25;11.00
65574;PMS5003;52216;54.942;73.394;2023-02-08T15:50:43;18.00;18.00;11.00
65574;PMS5003;52216;54.942;73.394;2023-02-08T15:53:47;19.00;18.00;11.00
65574;PMS5003;52216;54.942;73.394;2023-02-08T15:57:35;20.00;18.00;11.00
65574;PMS5003;52216;54.942;73.394;2023-02-08T16:00:35;19.60;16.40;10.00
65574;PMS5003;52216;54.942;73.394;2023-02-08T16:03:38;17.00;16.00;10.00
65574;PMS5003;52216;54.942;73.394;2023-02-08T16:06:48;16.00;15.00;8.00
65574;PMS5003;52216;54.942;73.394;2023-02-08T16:09:51;16.00;15.00;8.50
65574;PMS5003;52216;54.942;73.394;2023-02-08T16:12:56;19.40;16.00;10.00
65574;PMS5003;52216;54.942;73.394;2023-02-08T16:16:18;18.00;15.00;9.00
65574;PMS5003;52216;54.942;73.394;2023-02-08T16:19:32;19.50;17.50;10.50
65574;PMS5003;52216;54.942;73.394;2023-02-08T16:22:34;15.00;13.00;8.00
65574;PMS5003;52216;54.942;73.394;2023-02-08T16:25:42;14.00;13.50;6.75
65574;PMS5003;52216;54.942;73.394;2023-02-08T16:28:50;15.75;14.50;5.50
65574;PMS5003;52216;54.942;73.394;2023-02-08T16:31:57;15.00;13.25;5.00
65574;PMS5003;52216;54.942;73.394;2023-02-08T16:38:32;13.50;12.75;6.00
65574;PMS5003;52216;54.942;73.394;2023-02-08T16:48:02;16.00;14.00;8.00
65574;PMS5003;52216;54.942;73.394;2023-02-08T16:51:26;14.00;13.00;8.00
65574;PMS5003;52216;54.942;73.394;2023-02-08T16:54:29;14.67;13.00;7.67
65574;PMS5003;52216;54.942;73.394;2023-02-08T16:57:47;16.00;15.00;8.00
65574;PMS5003;52216;54.942;73.394;2023-02-08T17:00:53;17.67;16.67;9.67
65574;PMS5003;52216;54.942;73.394;2023-02-08T17:03:56;19.75;18.00;11.00
65574;PMS5003;52216;54.942;73.394;2023-02-08T17:06:58;17.50;16.00;11.00
65574;PMS5003;52216;54.942;73.394;2023-02-08T17:10:17;16.00;15.00;9.25
65574;PMS5003;52216;54.942;73.394;2023-02-08T17:13:21;16.00;15.00;9.00
65574;PMS5003;52216;54.942;73.394;2023-02-08T17:16:26;17.33;15.33;9.00
65574;PMS5003;52216;54.942;73.394;2023-02-08T17:19:30;16.00;15.00;9.67
65574;PMS5003;52216;54.942;73.394;2023-02-08T17:22:33;17.75;14.00;9.50
65574;PMS5003;52216;54.942;73.394;2023-02-08T17:25:40;24.00;19.00;13.00
65574;PMS5003;52216;54.942;73.394;2023-02-08T17:28:43;37.50;29.50;19.00
65574;PMS5003;52216;54.942;73.394;2023-02-08T17:31:46;39.00;29.00;19.00
65574;PMS5003;52216;54.942;73.394;2023-02-08T17:34:50;33.25;26.00;16.00
65574;PMS5003;52216;54.942;73.394;2023-02-08T17:37:53;28.00;23.25;14.00
65574;PMS5003;52216;54.942;73.394;2023-02-08T17:41:05;24.00;20.00;13.00
65574;PMS5003;52216;54.942;73.394;2023-02-08T17:44:18;22.00;19.00;12.00
65574;PMS5003;52216;54.942;73.394;2023-02-08T17:47:22;21.00;18.00;12.00
65574;PMS5003;52216;54.942;73.394;2023-02-08T17:50:25;23.00;19.50;13.00
65574;PMS5003;52216;54.942;73.394;2023-02-08T17:53:28;25.75;20.75;13.00
65574;PMS5003;52216;54.942;73.394;2023-02-08T17:56:31;27.00;21.00;14.00
65574;PMS5003;52216;54.942;73.394;2023-02-08T17:59:47;27.50;22.75;14.00
65574;PMS5003;52216;54.942;73.394;2023-02-08T18:02:50;29.00;23.00;14.00
65574;PMS5003;52216;54.942;73.394;2023-02-08T18:06:02;30.00;24.00;14.00
65574;PMS5003;52216;54.942;73.394;2023-02-08T18:09:07;30.00;23.00;14.00
65574;PMS5003;52216;54.942;73.394;2023-02-08T18:12:10;29.00;23.00;14.00
65574;PMS5003;52216;54.942;73.394;2023-02-08T18:15:23;25.00;21.00;13.00
65574;PMS5003;52216;54.942;73.394;2023-02-08T18:18:26;24.00;19.25;12.00
65574;PMS5003;52216;54.942;73.394;2023-02-08T18:21:29;20.00;17.00;11.00
65574;PMS5003;52216;54.942;73.394;2023-02-08T18:24:45;17.25;15.00;9.00
65574;PMS5003;52216;54.942;73.394;2023-02-08T18:27:47;19.00;15.00;9.00
65574;PMS5003;52216;54.942;73.394;2023-02-08T18:30:49;19.00;16.00;11.00
65574;PMS5003;52216;54.942;73.394;2023-02-08T18:33:51;17.75;16.75;11.00
65574;PMS5003;52216;54.942;73.394;2023-02-08T18:36:54;18.75;16.75;10.25
65574;PMS5003;52216;54.942;73.394;2023-02-08T18:39:56;17.00;16.00;10.00
65574;PMS5003;52216;54.942;73.394;2023-02-08T18:42:58;15.50;14.50;8.25
65574;PMS5003;52216;54.942;73.394;2023-02-08T18:46:02;13.00;12.00;6.00
65574;PMS5003;52216;54.942;73.394;2023-02-08T18:49:06;12.50;11.50;5.75
65574;PMS5003;52216;54.942;73.394;2023-02-08T18:52:11;13.00;11.00;4.00
65574;PMS5003;52216;54.942;73.394;2023-02-08T18:55:26;12.00;9.00;4.00
65574;PMS5003;52216;54.942;73.394;2023-02-08T18:58:34;12.75;10.50;4.00
65574;PMS5003;52216;54.942;73.394;2023-02-08T19:01:49;11.75;11.00;4.00
65574;PMS5003;52216;54.942;73.394;2023-02-08T19:04:51;14.00;13.00;5.00
65574;PMS5003;52216;54.942;73.394;2023-02-08T19:07:57;11.00;11.00;4.00
65574;PMS5003;52216;54.942;73.394;2023-02-08T19:11:01;11.00;11.00;4.00
65574;PMS5003;52216;54.942;73.394;2023-02-08T19:14:10;11.33;9.67;4.33
65574;PMS5003;52216;54.942;73.394;2023-02-08T19:17:17;11.00;9.50;4.00
65574;PMS5003;52216;54.942;73.394;2023-02-08T19:20:21;12.75;11.25;4.00
65574;PMS5003;52216;54.942;73.394;2023-02-08T19:23:34;13.00;12.00;6.00
65574;PMS5003;52216;54.942;73.394;2023-02-08T19:26:38;14.00;13.00;6.00
65574;PMS5003;52216;54.942;73.394;2023-02-08T19:29:50;17.25;15.25;6.00
65574;PMS5003;52216;54.942;73.394;2023-02-08T19:32:57;24.50;21.00;11.50
65574;PMS5003;52216;54.942;73.394;2023-02-08T19:36:04;29.00;23.00;14.00
65574;PMS5003;52216;54.942;73.394;2023-02-08T19:39:22;29.67;24.33;15.00
65574;PMS5003;52216;54.942;73.394;2023-02-08T19:42:26;31.00;25.00;14.50
65574;PMS5003;52216;54.942;73.394;2023-02-08T19:45:34;29.00;23.00;14.00
65574;PMS5003;52216;54.942;73.394;2023-02-08T19:48:50;29.00;23.00;14.00
65574;PMS5003;52216;54.942;73.394;2023-02-08T19:51:52;31.25;25.00;15.00
65574;PMS5003;52216;54.942;73.394;2023-02-08T19:54:55;35.25;26.50;16.00
65574;PMS5003;52216;54.942;73.394;2023-02-08T19:58:36;42.00;34.40;20.40
65574;PMS5003;52216;54.942;73.394;2023-02-08T20:01:38;46.00;38.75;23.00
65574;PMS5003;52216;54.942;73.394;2023-02-08T20:04:44;45.50;36.50;21.00
65574;PMS5003;52216;54.942;73.394;2023-02-08T20:07:47;48.40;41.80;23.80